F/V Oceanie — FVBW — position and weather

sailwx.info

Track history (hours):
 
Tides and Currents Weather Stations Pressure Air Temp Water Temp Dewpoint Dewpoint Depression Visibility Wind Speed Wind Dir Waves Ship Positions

F/V Oceanie

Last reported at 2015-Mar-05 03:32 UTC. Time now 2015-Mar-05 04:13 UTC.
Position N 47°26' W 003°37'.

Length 16 m.

Type: Fishing. MMSI: 228370000.

Date/timePositionNaut miles runAvg speedWind from/ knotsBaromVisibWave heightAir tempDewpointWater temp
2015-Mar-05 03:32N 47°26' W 003°37'4 4.0
2015-Mar-05 02:27N 47°26' W 003°30'5 5.7
2015-Mar-05 01:33N 47°26' W 003°23'1 0.9
2015-Mar-05 00:33N 47°26' W 003°22'1 1.1
2015-Mar-04 23:33N 47°27' W 003°22'1 0.5
2015-Mar-04 22:33N 47°26' W 003°22'2 1.8
2015-Mar-04 21:30N 47°25' W 003°24'3 3.2
2015-Mar-04 20:33N 47°27' W 003°21'3 3.0
2015-Mar-04 19:30N 47°25' W 003°24'5 3.9
2015-Mar-04 18:11N 47°25' W 003°17'2 2.3
2015-Mar-04 17:31N 47°26' W 003°18'3 3.3
2015-Mar-04 16:32N 47°25' W 003°23'3 2.9
2015-Mar-04 15:29N 47°24' W 003°19'3 3.1
2015-Mar-04 14:30N 47°25' W 003°14'3 3.2
2015-Mar-04 13:33N 47°26' W 003°19'4 4.4
2015-Mar-04 12:33N 47°29' W 003°22'9 9.0
2015-Mar-04 11:33N 47°38' W 003°22'5 5.5
2015-Mar-04 10:34N 47°44' W 003°22'0 0.0
2015-Mar-04 09:33N 47°44' W 003°22'0 0.0
2015-Mar-04 08:33N 47°44' W 003°22'0 0.3
2015-Mar-04 07:33N 47°43' W 003°22'8 8.4
2015-Mar-04 06:33N 47°35' W 003°22'8 7.8
2015-Mar-04 05:34N 47°27' W 003°20'0 0.3
2015-Mar-04 04:33N 47°27' W 003°20'2 2.2
2015-Mar-04 03:32N 47°26' W 003°23'2 1.6
2015-Mar-04 02:33N 47°25' W 003°21'1 0.9
2015-Mar-04 01:31N 47°26' W 003°21'1 0.6
2015-Mar-04 00:33N 47°26' W 003°22'1 0.9
2015-Mar-03 23:32N 47°26' W 003°24'1 1.3
2015-Mar-03 22:33N 47°27' W 003°22'1 1.4
2015-Mar-03 21:32N 47°26' W 003°23'1 0.7
2015-Mar-03 20:33N 47°25' W 003°24'2 2.2
2015-Mar-03 19:33N 47°27' W 003°22'3 2.6
2015-Mar-03 18:30N 47°25' W 003°19'2 1.8
2015-Mar-03 17:32N 47°25' W 003°22'2 1.5
2015-Mar-03 16:27N 47°25' W 003°20'2 2.7
2015-Mar-03 15:32N 47°25' W 003°16'4 3.6
2015-Mar-03 14:33N 47°25' W 003°21'2 1.3
2015-Mar-03 13:10N 47°25' W 003°19'2 2.9
2015-Mar-03 12:32N 47°25' W 003°16'3 3.4
2015-Mar-03 11:34N 47°25' W 003°21'1 0.7
2015-Mar-03 10:33N 47°25' W 003°21'1 1.0
2015-Mar-03 09:33N 47°25' W 003°20'2 1.6
2015-Mar-03 08:33N 47°24' W 003°22'3 3.1
2015-Mar-03 07:34N 47°25' W 003°17'1 1.5
2015-Mar-03 06:33N 47°26' W 003°19'4 3.6
2015-Mar-03 05:33N 47°26' W 003°24'8 8.5
2015-Mar-03 04:33N 47°35' W 003°23'9 8.8
2015-Mar-03 03:33N 47°44' W 003°22'0 0.0
2015-Mar-03 02:33N 47°44' W 003°22'7 6.6
2015-Mar-03 01:33N 47°37' W 003°22'8 8.3
2015-Mar-03 00:33N 47°29' W 003°20'3 3.3
2015-Mar-02 23:33N 47°26' W 003°22'0 0.2
2015-Mar-02 22:33N 47°26' W 003°22'0 0.5
2015-Mar-02 21:32N 47°26' W 003°21'1 1.3
2015-Mar-02 20:33N 47°27' W 003°22'1 1.0
2015-Mar-02 19:33N 47°27' W 003°22'1 1.4
2015-Mar-02 18:32N 47°25' W 003°21'2 1.2
2015-Mar-02 17:05N 47°25' W 003°19'2 3.1
2015-Mar-02 16:30N 47°25' W 003°16'3 2.6
2015-Mar-02 15:31N 47°25' W 003°20'2 1.9
2015-Mar-02 14:33N 47°24' W 003°22'3 3.3
2015-Mar-02 13:30N 47°24' W 003°17'2 2.2
2015-Mar-02 12:33N 47°26' W 003°15'4 3.8
2015-Mar-02 11:33N 47°25' W 003°21'1 1.0
2015-Mar-02 10:34N 47°25' W 003°22'3 2.9
2015-Mar-02 09:30N 47°24' W 003°17'2 2.3
2015-Mar-02 08:33N 47°26' W 003°15'3 3.1
2015-Mar-02 07:32N 47°25' W 003°19'3 2.8
2015-Mar-02 06:33N 47°25' W 003°15'2 1.9
2015-Mar-02 05:33N 47°26' W 003°18'3 3.4
2015-Mar-02 04:32N 47°26' W 003°23'8 8.3
2015-Mar-02 03:33N 47°34' W 003°23'9 8.7
2015-Mar-02 02:33N 47°42' W 003°22'1 0.0
2015-Feb-28 12:04N 47°44' W 003°22'0 0.0
2015-Feb-28 11:33N 47°44' W 003°22'0 0.0
2015-Feb-28 10:33N 47°44' W 003°22'0 0.0
2015-Feb-28 09:33N 47°44' W 003°22'0 0.0
2015-Feb-28 08:33N 47°44' W 003°22'0 0.0
2015-Feb-27 09:33N 47°44' W 003°22'0 0.0
2015-Feb-26 10:31N 47°44' W 003°22'0 0.0
2015-Feb-26 09:33N 47°44' W 003°22'  
Track history (hours):
 
Tides and Currents Weather Stations Pressure Air Temp Water Temp Dewpoint Dewpoint Depression Visibility Wind Speed Wind Dir Waves Ship Positions

F/V Oceanie

Last reported at 2015-Mar-05 03:32 UTC. Time now 2015-Mar-05 04:13 UTC.
Position N 47°26' W 003°37'.

Length 16 m.

Type: Fishing. MMSI: 228370000.

Date/timePositionNaut miles runAvg speedWind from/ knotsBaromVisibWave heightAir tempDewpointWater temp
2015-Mar-05 03:32N 47°26' W 003°37'4 4.0
2015-Mar-05 02:27N 47°26' W 003°30'5 5.7
2015-Mar-05 01:33N 47°26' W 003°23'1 0.9
2015-Mar-05 00:33N 47°26' W 003°22'1 1.1
2015-Mar-04 23:33N 47°27' W 003°22'1 0.5
2015-Mar-04 22:33N 47°26' W 003°22'2 1.8
2015-Mar-04 21:30N 47°25' W 003°24'3 3.2
2015-Mar-04 20:33N 47°27' W 003°21'3 3.0
2015-Mar-04 19:30N 47°25' W 003°24'5 3.9
2015-Mar-04 18:11N 47°25' W 003°17'2 2.3
2015-Mar-04 17:31N 47°26' W 003°18'3 3.3
2015-Mar-04 16:32N 47°25' W 003°23'3 2.9
2015-Mar-04 15:29N 47°24' W 003°19'3 3.1
2015-Mar-04 14:30N 47°25' W 003°14'3 3.2
2015-Mar-04 13:33N 47°26' W 003°19'4 4.4
2015-Mar-04 12:33N 47°29' W 003°22'9 9.0
2015-Mar-04 11:33N 47°38' W 003°22'5 5.5
2015-Mar-04 10:34N 47°44' W 003°22'0 0.0
2015-Mar-04 09:33N 47°44' W 003°22'0 0.0
2015-Mar-04 08:33N 47°44' W 003°22'0 0.3
2015-Mar-04 07:33N 47°43' W 003°22'8 8.4
2015-Mar-04 06:33N 47°35' W 003°22'8 7.8
2015-Mar-04 05:34N 47°27' W 003°20'0 0.3
2015-Mar-04 04:33N 47°27' W 003°20'2 2.2
2015-Mar-04 03:32N 47°26' W 003°23'2 1.6
2015-Mar-04 02:33N 47°25' W 003°21'1 0.9
2015-Mar-04 01:31N 47°26' W 003°21'1 0.6
2015-Mar-04 00:33N 47°26' W 003°22'1 0.9
2015-Mar-03 23:32N 47°26' W 003°24'1 1.3
2015-Mar-03 22:33N 47°27' W 003°22'1 1.4
2015-Mar-03 21:32N 47°26' W 003°23'1 0.7
2015-Mar-03 20:33N 47°25' W 003°24'2 2.2
2015-Mar-03 19:33N 47°27' W 003°22'3 2.6
2015-Mar-03 18:30N 47°25' W 003°19'2 1.8
2015-Mar-03 17:32N 47°25' W 003°22'2 1.5
2015-Mar-03 16:27N 47°25' W 003°20'2 2.7
2015-Mar-03 15:32N 47°25' W 003°16'4 3.6
2015-Mar-03 14:33N 47°25' W 003°21'2 1.3
2015-Mar-03 13:10N 47°25' W 003°19'2 2.9
2015-Mar-03 12:32N 47°25' W 003°16'3 3.4
2015-Mar-03 11:34N 47°25' W 003°21'1 0.7
2015-Mar-03 10:33N 47°25' W 003°21'1 1.0
2015-Mar-03 09:33N 47°25' W 003°20'2 1.6
2015-Mar-03 08:33N 47°24' W 003°22'3 3.1
2015-Mar-03 07:34N 47°25' W 003°17'1 1.5
2015-Mar-03 06:33N 47°26' W 003°19'4 3.6
2015-Mar-03 05:33N 47°26' W 003°24'8 8.5
2015-Mar-03 04:33N 47°35' W 003°23'9 8.8
2015-Mar-03 03:33N 47°44' W 003°22'0 0.0
2015-Mar-03 02:33N 47°44' W 003°22'7 6.6
2015-Mar-03 01:33N 47°37' W 003°22'8 8.3
2015-Mar-03 00:33N 47°29' W 003°20'3 3.3
2015-Mar-02 23:33N 47°26' W 003°22'0 0.2
2015-Mar-02 22:33N 47°26' W 003°22'0 0.5
2015-Mar-02 21:32N 47°26' W 003°21'1 1.3
2015-Mar-02 20:33N 47°27' W 003°22'1 1.0
2015-Mar-02 19:33N 47°27' W 003°22'1 1.4
2015-Mar-02 18:32N 47°25' W 003°21'2 1.2
2015-Mar-02 17:05N 47°25' W 003°19'2 3.1
2015-Mar-02 16:30N 47°25' W 003°16'3 2.6
2015-Mar-02 15:31N 47°25' W 003°20'2 1.9
2015-Mar-02 14:33N 47°24' W 003°22'3 3.3
2015-Mar-02 13:30N 47°24' W 003°17'2 2.2
2015-Mar-02 12:33N 47°26' W 003°15'4 3.8
2015-Mar-02 11:33N 47°25' W 003°21'1 1.0
2015-Mar-02 10:34N 47°25' W 003°22'3 2.9
2015-Mar-02 09:30N 47°24' W 003°17'2 2.3
2015-Mar-02 08:33N 47°26' W 003°15'3 3.1
2015-Mar-02 07:32N 47°25' W 003°19'3 2.8
2015-Mar-02 06:33N 47°25' W 003°15'2 1.9
2015-Mar-02 05:33N 47°26' W 003°18'3 3.4
2015-Mar-02 04:32N 47°26' W 003°23'8 8.3
2015-Mar-02 03:33N 47°34' W 003°23'9 8.7
2015-Mar-02 02:33N 47°42' W 003°22'1 0.0
2015-Feb-28 12:04N 47°44' W 003°22'0 0.0
2015-Feb-28 11:33N 47°44' W 003°22'0 0.0
2015-Feb-28 10:33N 47°44' W 003°22'0 0.0
2015-Feb-28 09:33N 47°44' W 003°22'0 0.0
2015-Feb-28 08:33N 47°44' W 003°22'0 0.0
2015-Feb-27 09:33N 47°44' W 003°22'0 0.0
2015-Feb-26 10:31N 47°44' W 003°22'0 0.0
2015-Feb-26 09:33N 47°44' W 003°22'  

Dump ship's entire track history